Time;durP1;ratioP1;P1;durP2;ratioP2;P2;SDS_P1;SDS_P2;PMS_P1;PMS_P2;Temp;Humidity;BMP_temperature;BMP_pressure;BME280_temperature;BME280_humidity;BME280_pressure;Samples;Min_cycle;Max_cycle;Signal;HPM_P1;HPM_P2
2022/03/30 00:01:08;;;;;;;33.38;7.68;;;;;;;;;;5075068;28;20036;-71
2022/03/30 00:03:34;;;;;;;25.48;7.47;;;;;;;;;;5082511;28;20040;-71
2022/03/30 00:06:00;;;;;;;25.10;7.13;;;;;;;;;;5079173;28;20033;-71
2022/03/30 00:08:26;;;;;;;20.38;6.22;;;;;;;;;;5081785;28;20063;-71
2022/03/30 00:10:52;;;;;;;25.30;6.53;;;;;;;;;;5078268;28;20225;-71
2022/03/30 00:13:18;;;;;;;26.25;8.18;;;;;;;;;;5087315;28;20028;-71
2022/03/30 00:15:44;;;;;;;22.02;5.60;;;;;;;;;;5077593;28;20048;-71
2022/03/30 00:18:10;;;;;;;21.58;6.53;;;;;;;;;;5085373;28;20461;-71
2022/03/30 00:20:37;;;;;;;29.15;8.40;;;;;;;;;;5081399;28;20036;-71
2022/03/30 00:23:03;;;;;;;28.02;6.72;;;;;;;;;;5080022;28;20040;-71
2022/03/30 00:25:29;;;;;;;22.73;7.53;;;;;;;;;;5077756;28;20071;-71
2022/03/30 00:27:55;;;;;;;22.45;6.65;;;;;;;;;;5084988;28;20439;-71
2022/03/30 00:30:21;;;;;;;18.98;6.00;;;;;;;;;;5085607;28;20021;-71
2022/03/30 00:32:48;;;;;;;24.70;6.30;;;;;;;;;;5085784;28;20032;-71
2022/03/30 00:35:14;;;;;;;23.35;6.90;;;;;;;;;;5081056;28;20028;-71
2022/03/30 00:37:40;;;;;;;22.30;6.68;;;;;;;;;;5077114;28;20040;-71
2022/03/30 00:40:08;;;;;;;22.80;6.35;;;;;;;;;;5086232;28;20739;-70
2022/03/30 00:42:34;;;;;;;25.83;6.05;;;;;;;;;;5084130;28;20039;-71
2022/03/30 00:45:08;;;;;;;21.95;6.10;;;;;;;;;;5076735;28;20124;-71
2022/03/30 00:47:34;;;;;;;19.55;6.82;;;;;;;;;;5080020;28;20052;-70
2022/03/30 00:50:00;;;;;;;22.90;6.95;;;;;;;;;;5088845;28;20054;-72
2022/03/30 00:52:26;;;;;;;18.63;6.20;;;;;;;;;;5087654;28;20028;-71
2022/03/30 00:54:52;;;;;;;25.88;6.10;;;;;;;;;;5081822;28;20644;-71
2022/03/30 00:57:19;;;;;;;24.02;6.45;;;;;;;;;;5089030;28;20047;-71
2022/03/30 00:59:45;;;;;;;28.58;6.50;;;;;;;;;;5077608;28;20040;-71
2022/03/30 01:02:11;;;;;;;23.77;6.85;;;;;;;;;;5073859;28;20037;-71
2022/03/30 01:04:38;;;;;;;23.13;7.93;;;;;;;;;;5082533;28;20028;-70
2022/03/30 01:07:04;;;;;;;25.45;7.28;;;;;;;;;;5080865;28;20044;-71
2022/03/30 01:09:30;;;;;;;29.83;8.90;;;;;;;;;;5083071;28;20024;-71
2022/03/30 01:11:57;;;;;;;22.73;7.38;;;;;;;;;;5077910;28;20035;-71
2022/03/30 01:14:23;;;;;;;20.08;6.15;;;;;;;;;;5080457;28;20036;-71
2022/03/30 01:16:49;;;;;;;25.92;6.78;;;;;;;;;;5086206;28;20036;-71
2022/03/30 01:19:16;;;;;;;22.48;6.57;;;;;;;;;;5082754;28;20101;-71
2022/03/30 01:21:43;;;;;;;31.60;7.50;;;;;;;;;;5078757;28;20051;-71
2022/03/30 01:24:11;;;;;;;33.42;5.88;;;;;;;;;;5083205;28;20127;-71
2022/03/30 01:26:37;;;;;;;23.05;6.88;;;;;;;;;;5076663;28;20174;-71
2022/03/30 01:34:38;;;;;;;24.38;6.20;;;;;;;;;;5079244;28;20075;-72
2022/03/30 01:37:05;;;;;;;18.80;6.72;;;;;;;;;;5077883;28;20031;-71
2022/03/30 01:39:31;;;;;;;18.33;6.50;;;;;;;;;;5081186;28;20682;-72
2022/03/30 01:41:57;;;;;;;22.23;6.80;;;;;;;;;;5079799;28;20042;-71
2022/03/30 01:44:24;;;;;;;19.50;5.13;;;;;;;;;;5079683;28;20071;-71
2022/03/30 01:46:50;;;;;;;21.00;6.13;;;;;;;;;;5077671;28;20479;-71
2022/03/30 01:49:21;;;;;;;22.55;5.75;;;;;;;;;;5083153;28;20452;-71
2022/03/30 01:51:47;;;;;;;18.13;6.60;;;;;;;;;;5081984;28;20101;-71
2022/03/30 01:54:13;;;;;;;24.45;6.30;;;;;;;;;;5078646;28;20067;-71
2022/03/30 01:56:39;;;;;;;22.13;5.70;;;;;;;;;;5073838;28;20041;-71
2022/03/30 01:59:06;;;;;;;22.02;7.10;;;;;;;;;;5079390;28;20107;-71
2022/03/30 02:01:32;;;;;;;21.88;6.72;;;;;;;;;;5079896;28;20132;-71
2022/03/30 02:04:00;;;;;;;24.67;6.82;;;;;;;;;;5074090;28;20102;-71
2022/03/30 02:06:26;;;;;;;17.80;6.47;;;;;;;;;;5068552;28;20103;-71
2022/03/30 02:08:52;;;;;;;18.15;6.40;;;;;;;;;;5078436;28;20035;-71
2022/03/30 02:11:18;;;;;;;17.92;6.20;;;;;;;;;;5083401;28;20078;-71
2022/03/30 02:13:44;;;;;;;25.10;6.43;;;;;;;;;;5077357;28;20073;-71
2022/03/30 02:16:10;;;;;;;24.38;6.32;;;;;;;;;;5080396;28;20032;-71
2022/03/30 02:18:36;;;;;;;22.75;6.60;;;;;;;;;;5075364;28;20360;-71
2022/03/30 02:21:02;;;;;;;23.80;6.53;;;;;;;;;;5073063;28;20033;-72
2022/03/30 02:23:29;;;;;;;21.02;6.07;;;;;;;;;;5085646;28;20047;-71
2022/03/30 02:25:55;;;;;;;20.83;5.57;;;;;;;;;;5077904;28;20047;-71
2022/03/30 02:28:21;;;;;;;17.55;7.07;;;;;;;;;;5084218;28;20023;-72
2022/03/30 02:30:47;;;;;;;27.15;6.47;;;;;;;;;;5074441;28;20682;-72
2022/03/30 02:33:13;;;;;;;22.88;6.22;;;;;;;;;;5079511;28;20371;-71
2022/03/30 02:35:39;;;;;;;24.45;7.00;;;;;;;;;;5074272;28;20040;-72
2022/03/30 02:38:05;;;;;;;26.00;8.68;;;;;;;;;;5071349;28;20040;-71
2022/03/30 02:40:31;;;;;;;19.15;6.82;;;;;;;;;;5082993;28;20059;-72
2022/03/30 02:42:57;;;;;;;26.98;6.80;;;;;;;;;;5071282;28;20616;-71
2022/03/30 02:45:23;;;;;;;20.13;6.90;;;;;;;;;;5081307;28;20039;-71
2022/03/30 02:50:34;;;;;;;18.00;6.72;;;;;;;;;;5083263;28;20082;-71
2022/03/30 02:53:00;;;;;;;20.50;5.97;;;;;;;;;;5081482;28;20360;-72
2022/03/30 02:55:26;;;;;;;26.58;7.82;;;;;;;;;;5085087;28;20036;-71
2022/03/30 02:57:52;;;;;;;18.30;5.50;;;;;;;;;;5076156;28;20036;-71
2022/03/30 03:00:18;;;;;;;24.70;6.20;;;;;;;;;;5084730;28;20036;-71
2022/03/30 03:02:44;;;;;;;20.48;5.97;;;;;;;;;;5075316;28;20035;-71
2022/03/30 03:05:10;;;;;;;21.58;7.00;;;;;;;;;;5074343;28;20036;-71
2022/03/30 03:07:36;;;;;;;23.75;6.13;;;;;;;;;;5085332;28;20099;-72
2022/03/30 03:10:03;;;;;;;25.08;6.93;;;;;;;;;;5079752;28;20398;-71
2022/03/30 03:12:29;;;;;;;23.40;5.85;;;;;;;;;;5079820;28;20086;-72
2022/03/30 03:14:55;;;;;;;20.38;5.75;;;;;;;;;;5082154;28;20036;-71
2022/03/30 03:17:21;;;;;;;20.35;5.88;;;;;;;;;;5078816;28;20039;-71
2022/03/30 03:19:47;;;;;;;22.63;6.57;;;;;;;;;;5080251;28;20051;-71
2022/03/30 03:22:13;;;;;;;24.88;6.30;;;;;;;;;;5082011;28;20383;-72
2022/03/30 03:24:39;;;;;;;26.00;6.30;;;;;;;;;;5083685;28;20056;-71
2022/03/30 03:27:05;;;;;;;26.50;7.60;;;;;;;;;;5080927;28;20024;-71
2022/03/30 03:29:31;;;;;;;24.58;7.50;;;;;;;;;;5074968;28;20391;-71
2022/03/30 03:31:57;;;;;;;25.63;7.72;;;;;;;;;;5075122;28;20031;-72
2022/03/30 03:34:23;;;;;;;26.15;8.02;;;;;;;;;;5079838;28;20044;-71
2022/03/30 03:36:49;;;;;;;26.13;8.20;;;;;;;;;;5082159;28;20033;-73
2022/03/30 03:39:16;;;;;;;23.95;8.07;;;;;;;;;;5077390;28;20043;-72
2022/03/30 03:41:43;;;;;;;22.50;7.82;;;;;;;;;;5075723;28;20096;-72
2022/03/30 03:44:10;;;;;;;28.42;8.18;;;;;;;;;;5081984;28;20546;-72
2022/03/30 03:46:36;;;;;;;25.15;7.13;;;;;;;;;;5083361;28;20504;-71
2022/03/30 03:49:02;;;;;;;23.42;6.80;;;;;;;;;;5076167;28;20028;-72
2022/03/30 03:51:28;;;;;;;25.67;6.97;;;;;;;;;;5075141;28;20039;-71
2022/03/30 03:53:54;;;;;;;20.23;6.20;;;;;;;;;;5082597;28;20115;-71
2022/03/30 03:56:21;;;;;;;22.17;7.40;;;;;;;;;;5070714;28;20032;-72
2022/03/30 03:58:49;;;;;;;25.13;7.30;;;;;;;;;;5067332;28;20459;-71
2022/03/30 04:01:15;;;;;;;27.05;5.90;;;;;;;;;;5074250;28;20043;-72
2022/03/30 04:03:44;;;;;;;20.20;5.95;;;;;;;;;;5078067;28;20028;-72
2022/03/30 04:06:10;;;;;;;17.23;5.57;;;;;;;;;;5078703;28;20024;-72
2022/03/30 04:08:36;;;;;;;20.58;6.32;;;;;;;;;;5079692;28;20077;-71
2022/03/30 04:11:02;;;;;;;20.40;6.57;;;;;;;;;;5079425;28;20372;-71
2022/03/30 04:13:28;;;;;;;24.55;7.05;;;;;;;;;;5081453;28;20039;-73
2022/03/30 04:15:54;;;;;;;19.45;6.70;;;;;;;;;;5074506;28;20391;-72
2022/03/30 04:18:23;;;;;;;21.00;6.93;;;;;;;;;;5081029;28;20109;-72
2022/03/30 04:20:49;;;;;;;27.45;7.35;;;;;;;;;;5083162;28;20406;-72
2022/03/30 04:23:15;;;;;;;23.45;6.28;;;;;;;;;;5081545;28;20096;-72
2022/03/30 04:25:41;;;;;;;21.88;6.75;;;;;;;;;;5079380;28;20040;-72
2022/03/30 04:28:07;;;;;;;21.55;6.85;;;;;;;;;;5085630;28;20020;-71
2022/03/30 04:30:33;;;;;;;17.90;5.75;;;;;;;;;;5074993;28;20040;-72
2022/03/30 04:32:59;;;;;;;22.77;6.15;;;;;;;;;;5082583;28;20062;-72
2022/03/30 04:35:25;;;;;;;25.65;6.18;;;;;;;;;;5084599;28;20063;-71
2022/03/30 04:37:55;;;;;;;17.20;6.03;;;;;;;;;;5085559;28;20020;-72
2022/03/30 04:40:22;;;;;;;20.67;6.65;;;;;;;;;;5080050;28;20036;-73
2022/03/30 04:42:49;;;;;;;28.70;7.13;;;;;;;;;;5077039;28;20028;-72
2022/03/30 04:45:15;;;;;;;17.50;6.20;;;;;;;;;;5074278;28;20088;-72
2022/03/30 04:47:41;;;;;;;23.00;6.00;;;;;;;;;;5078141;28;20056;-72
2022/03/30 04:50:09;;;;;;;28.05;8.98;;;;;;;;;;5082220;28;20523;-72
2022/03/30 04:52:35;;;;;;;23.88;7.93;;;;;;;;;;5086991;28;20024;-71
2022/03/30 04:55:02;;;;;;;24.85;9.55;;;;;;;;;;5083859;28;20832;-71
2022/03/30 04:57:28;;;;;;;33.35;10.30;;;;;;;;;;5082871;28;20016;-72
2022/03/30 04:59:54;;;;;;;25.90;11.25;;;;;;;;;;5073574;28;20055;-71
2022/03/30 05:02:20;;;;;;;25.00;11.05;;;;;;;;;;5072362;28;20032;-71
2022/03/30 05:04:46;;;;;;;25.63;10.95;;;;;;;;;;5074874;28;20036;-72
2022/03/30 05:07:14;;;;;;;31.45;10.50;;;;;;;;;;5085405;28;20028;-71
2022/03/30 05:09:40;;;;;;;24.75;9.55;;;;;;;;;;5080510;28;20450;-72
2022/03/30 05:12:06;;;;;;;25.30;8.25;;;;;;;;;;5072612;28;20029;-72
2022/03/30 05:14:35;;;;;;;22.70;8.05;;;;;;;;;;5086193;28;20569;-72
2022/03/30 05:17:01;;;;;;;22.15;7.45;;;;;;;;;;5079342;28;20057;-72
2022/03/30 05:19:27;;;;;;;20.17;7.60;;;;;;;;;;5088459;28;20533;-71
2022/03/30 05:21:53;;;;;;;24.60;8.95;;;;;;;;;;5081459;28;20042;-72
2022/03/30 05:24:19;;;;;;;22.20;8.85;;;;;;;;;;5085672;28;20555;-72
2022/03/30 05:26:46;;;;;;;21.83;8.75;;;;;;;;;;5081998;28;20032;-72
2022/03/30 05:29:12;;;;;;;33.47;10.73;;;;;;;;;;5080562;28;20111;-71
2022/03/30 05:31:38;;;;;;;23.98;10.50;;;;;;;;;;5079315;28;20062;-72
2022/03/30 05:34:04;;;;;;;25.42;9.15;;;;;;;;;;5088864;28;20032;-72
2022/03/30 05:36:30;;;;;;;22.45;8.90;;;;;;;;;;5087040;28;20028;-72
2022/03/30 05:38:56;;;;;;;24.00;9.82;;;;;;;;;;5086129;28;20042;-72
2022/03/30 05:41:22;;;;;;;34.70;14.50;;;;;;;;;;5087826;28;20039;-72
2022/03/30 05:43:48;;;;;;;49.10;30.30;;;;;;;;;;5080009;28;20028;-72
2022/03/30 05:46:14;;;;;;;40.75;25.33;;;;;;;;;;5083167;28;20069;-72
2022/03/30 05:48:40;;;;;;;33.83;14.48;;;;;;;;;;5083482;28;20058;-72
2022/03/30 05:51:07;;;;;;;24.48;10.13;;;;;;;;;;5086753;28;20435;-73
2022/03/30 05:53:33;;;;;;;25.98;9.93;;;;;;;;;;5081584;28;20055;-72
2022/03/30 05:55:59;;;;;;;19.33;8.27;;;;;;;;;;5087033;28;20020;-72
2022/03/30 05:58:25;;;;;;;24.88;8.20;;;;;;;;;;5069821;28;20078;-72
2022/03/30 06:00:51;;;;;;;25.13;9.57;;;;;;;;;;5084043;28;20459;-72
2022/03/30 06:03:17;;;;;;;20.77;7.78;;;;;;;;;;5088527;28;20035;-72
2022/03/30 06:05:43;;;;;;;25.38;8.73;;;;;;;;;;5077967;28;20051;-72
2022/03/30 06:08:09;;;;;;;21.00;8.55;;;;;;;;;;5076916;28;20024;-73
2022/03/30 06:10:35;;;;;;;20.73;8.45;;;;;;;;;;5079964;28;20056;-72
2022/03/30 06:13:02;;;;;;;30.73;9.70;;;;;;;;;;5078292;28;20838;-72
2022/03/30 06:15:28;;;;;;;25.02;9.52;;;;;;;;;;5079221;28;20056;-72
2022/03/30 06:17:55;;;;;;;23.48;7.30;;;;;;;;;;5080886;28;20040;-72
2022/03/30 06:20:24;;;;;;;21.98;7.95;;;;;;;;;;5085626;28;20024;-72
2022/03/30 06:22:52;;;;;;;23.70;9.52;;;;;;;;;;5086666;28;20118;-72
2022/03/30 06:25:20;;;;;;;22.73;8.15;;;;;;;;;;5083868;28;20110;-72
2022/03/30 06:27:46;;;;;;;18.30;7.45;;;;;;;;;;5077352;28;20048;-72
2022/03/30 06:30:13;;;;;;;30.05;8.50;;;;;;;;;;5083398;28;20112;-72
2022/03/30 06:32:39;;;;;;;23.23;8.80;;;;;;;;;;5076654;28;20036;-72
2022/03/30 06:35:05;;;;;;;27.27;8.82;;;;;;;;;;5086143;28;20125;-72
2022/03/30 06:37:31;;;;;;;26.85;9.88;;;;;;;;;;5082406;28;20032;-72
2022/03/30 06:39:57;;;;;;;23.60;10.35;;;;;;;;;;5088334;28;20704;-73
2022/03/30 06:42:24;;;;;;;25.38;9.70;;;;;;;;;;5080637;28;20047;-72
2022/03/30 06:44:50;;;;;;;22.67;9.05;;;;;;;;;;5085421;28;20899;-72
2022/03/30 06:47:16;;;;;;;26.00;9.20;;;;;;;;;;5076738;28;20059;-72
2022/03/30 06:49:42;;;;;;;27.42;9.52;;;;;;;;;;5081259;28;20036;-72
2022/03/30 06:52:09;;;;;;;23.10;9.68;;;;;;;;;;5081953;28;20040;-72
2022/03/30 06:54:36;;;;;;;25.45;8.02;;;;;;;;;;5076495;28;20447;-72
2022/03/30 06:57:02;;;;;;;26.13;8.73;;;;;;;;;;5084177;28;20024;-73
2022/03/30 06:59:29;;;;;;;21.77;9.05;;;;;;;;;;5080825;28;20709;-72
2022/03/30 07:01:55;;;;;;;27.75;9.82;;;;;;;;;;5080608;28;20471;-72
2022/03/30 07:04:22;;;;;;;28.08;9.70;;;;;;;;;;5082059;28;20780;-72
2022/03/30 07:12:18;;;;;;;26.40;10.75;;;;;;;;;;5081611;28;20047;-72
2022/03/30 07:14:46;;;;;;;26.73;10.27;;;;;;;;;;5087956;28;20078;-72
2022/03/30 07:17:12;;;;;;;33.88;9.93;;;;;;;;;;5083997;28;20039;-72
2022/03/30 07:19:40;;;;;;;24.92;10.95;;;;;;;;;;5081374;28;20397;-72
2022/03/30 07:22:06;;;;;;;28.63;11.13;;;;;;;;;;5082572;28;20417;-72
2022/03/30 07:24:32;;;;;;;27.20;12.00;;;;;;;;;;5085056;28;20286;-72
2022/03/30 07:26:58;;;;;;;31.23;12.38;;;;;;;;;;5081510;28;20103;-73
2022/03/30 07:29:24;;;;;;;30.25;11.82;;;;;;;;;;5086097;28;20036;-72
2022/03/30 07:31:50;;;;;;;34.90;13.80;;;;;;;;;;5083929;28;20024;-72
2022/03/30 07:34:17;;;;;;;28.23;11.45;;;;;;;;;;5087640;28;20063;-72
2022/03/30 07:36:43;;;;;;;27.95;13.32;;;;;;;;;;5085183;28;20466;-72
2022/03/30 07:39:09;;;;;;;34.92;14.50;;;;;;;;;;5082029;28;20098;-72
2022/03/30 07:41:35;;;;;;;35.00;14.55;;;;;;;;;;5086436;28;20036;-72
2022/03/30 07:44:02;;;;;;;32.70;15.07;;;;;;;;;;5086392;28;20050;-72
2022/03/30 07:46:28;;;;;;;32.83;15.00;;;;;;;;;;5084747;28;20086;-72
2022/03/30 07:48:54;;;;;;;32.67;13.35;;;;;;;;;;5083402;28;20036;-73
2022/03/30 07:51:20;;;;;;;35.30;16.08;;;;;;;;;;5081986;28;20032;-72
2022/03/30 07:53:46;;;;;;;30.13;14.52;;;;;;;;;;5081380;28;20029;-72
2022/03/30 07:56:12;;;;;;;37.80;15.18;;;;;;;;;;5082440;28;20032;-73
2022/03/30 07:58:38;;;;;;;33.33;14.82;;;;;;;;;;5074280;28;20036;-72
2022/03/30 08:01:04;;;;;;;30.10;15.32;;;;;;;;;;5084192;28;20036;-73
2022/03/30 08:03:30;;;;;;;29.60;14.20;;;;;;;;;;5081752;28;20039;-73
2022/03/30 08:05:56;;;;;;;32.05;14.68;;;;;;;;;;5079836;28;20044;-72
2022/03/30 08:08:22;;;;;;;32.30;14.85;;;;;;;;;;5091298;28;20028;-72
2022/03/30 08:10:49;;;;;;;41.22;18.60;;;;;;;;;;5081606;28;20036;-73
2022/03/30 08:13:15;;;;;;;34.80;16.00;;;;;;;;;;5082857;28;20036;-72
2022/03/30 08:15:42;;;;;;;29.02;13.95;;;;;;;;;;5084909;28;20044;-73
2022/03/30 08:18:09;;;;;;;37.08;15.80;;;;;;;;;;5083177;28;20094;-72
2022/03/30 08:23:19;;;;;;;44.97;17.48;;;;;;;;;;5079918;28;20047;-73
2022/03/30 08:25:45;;;;;;;43.60;22.33;;;;;;;;;;5083479;28;20507;-73
2022/03/30 08:28:11;;;;;;;47.20;21.15;;;;;;;;;;5083308;28;20395;-72
2022/03/30 08:30:38;;;;;;;39.45;20.75;;;;;;;;;;5086053;28;20047;-73
2022/03/30 08:33:04;;;;;;;42.17;24.05;;;;;;;;;;5085608;28;20032;-72
2022/03/30 08:35:31;;;;;;;36.00;21.42;;;;;;;;;;5083607;28;20039;-73
2022/03/30 08:37:57;;;;;;;36.63;16.27;;;;;;;;;;5084354;28;20126;-73
2022/03/30 08:40:23;;;;;;;34.60;16.40;;;;;;;;;;5083618;28;20495;-72
2022/03/30 08:42:49;;;;;;;32.70;15.75;;;;;;;;;;5087194;28;20025;-72
2022/03/30 08:45:15;;;;;;;30.40;15.32;;;;;;;;;;5090899;28;20040;-72
2022/03/30 08:47:41;;;;;;;30.45;15.63;;;;;;;;;;5079493;28;20043;-72
2022/03/30 08:50:08;;;;;;;33.55;16.70;;;;;;;;;;5076219;28;20036;-73
2022/03/30 08:52:34;;;;;;;40.80;16.77;;;;;;;;;;5081743;28;20061;-72
2022/03/30 08:55:00;;;;;;;33.50;16.13;;;;;;;;;;5075196;28;20119;-72
2022/03/30 08:57:27;;;;;;;31.13;15.10;;;;;;;;;;5088174;28;20031;-72
2022/03/30 09:00:11;;;;;;;36.13;16.20;;;;;;;;;;5083023;28;20123;-72
2022/03/30 09:02:40;;;;;;;29.77;15.65;;;;;;;;;;5088223;28;20069;-72
2022/03/30 09:05:15;;;;;;;29.60;15.13;;;;;;;;;;5082433;28;20043;-72
2022/03/30 09:07:41;;;;;;;29.17;14.60;;;;;;;;;;5081994;28;20035;-73
2022/03/30 09:10:12;;;;;;;32.70;15.23;;;;;;;;;;5080825;28;20032;-72
2022/03/30 09:12:38;;;;;;;33.35;16.67;;;;;;;;;;5085882;28;20063;-72
2022/03/30 09:15:05;;;;;;;34.60;15.15;;;;;;;;;;5085279;28;20097;-73
2022/03/30 09:17:38;;;;;;;31.95;12.95;;;;;;;;;;5084195;28;20051;-72
2022/03/30 09:20:04;;;;;;;23.63;11.40;;;;;;;;;;5080967;28;20040;-73
2022/03/30 09:22:32;;;;;;;23.13;9.68;;;;;;;;;;5082342;28;20040;-73
2022/03/30 09:24:58;;;;;;;26.92;12.13;;;;;;;;;;5087901;28;20048;-73
2022/03/30 09:27:24;;;;;;;27.15;14.48;;;;;;;;;;5083245;28;20032;-72
2022/03/30 09:29:51;;;;;;;27.10;12.25;;;;;;;;;;5086908;28;20025;-73
2022/03/30 09:32:17;;;;;;;22.60;11.65;;;;;;;;;;5083927;28;20038;-72
2022/03/30 09:34:50;;;;;;;21.10;11.35;;;;;;;;;;5083402;28;20037;-72
2022/03/30 09:37:17;;;;;;;25.42;10.27;;;;;;;;;;5079991;28;20604;-72
2022/03/30 09:39:43;;;;;;;24.58;9.88;;;;;;;;;;5074915;28;20484;-72
2022/03/30 09:42:10;;;;;;;20.50;11.00;;;;;;;;;;5085916;28;20036;-72
2022/03/30 09:44:51;;;;;;;20.85;10.35;;;;;;;;;;5085421;28;20028;-71
2022/03/30 09:47:18;;;;;;;23.13;10.20;;;;;;;;;;5085859;28;20677;-72
2022/03/30 09:49:44;;;;;;;19.35;9.20;;;;;;;;;;5076996;28;20044;-72
2022/03/30 09:52:11;;;;;;;18.85;8.38;;;;;;;;;;5085265;28;20031;-72
2022/03/30 09:54:38;;;;;;;17.65;8.18;;;;;;;;;;5084109;28;20047;-72
2022/03/30 09:57:20;;;;;;;23.50;8.25;;;;;;;;;;5084045;28;20138;-73
2022/03/30 10:00:00;;;;;;;22.25;9.02;;;;;;;;;;5084018;28;20084;-72
2022/03/30 10:02:27;;;;;;;24.52;10.35;;;;;;;;;;5091113;28;20073;-74
2022/03/30 10:04:53;;;;;;;21.67;10.20;;;;;;;;;;5079085;28;20066;-72
2022/03/30 10:07:20;;;;;;;25.73;9.85;;;;;;;;;;5081655;28;20352;-72
2022/03/30 10:09:47;;;;;;;24.05;10.55;;;;;;;;;;5085699;28;20068;-72
2022/03/30 10:12:16;;;;;;;20.25;9.60;;;;;;;;;;5084710;28;20036;-72
2022/03/30 10:14:42;;;;;;;29.00;10.20;;;;;;;;;;5086779;28;20032;-73
2022/03/30 10:17:08;;;;;;;24.80;10.65;;;;;;;;;;5088801;28;20447;-72
2022/03/30 10:19:34;;;;;;;22.13;9.98;;;;;;;;;;5088597;28;20047;-72
2022/03/30 10:22:13;;;;;;;25.02;10.15;;;;;;;;;;5083660;28;20036;-72
2022/03/30 10:24:48;;;;;;;20.20;10.32;;;;;;;;;;5084848;28;20087;-72
2022/03/30 10:27:20;;;;;;;29.42;10.20;;;;;;;;;;5073801;28;20040;-72
2022/03/30 10:29:50;;;;;;;20.60;9.15;;;;;;;;;;5087217;28;20036;-71
2022/03/30 10:32:16;;;;;;;25.70;10.27;;;;;;;;;;5087367;28;20028;-72
2022/03/30 10:34:50;;;;;;;20.92;9.57;;;;;;;;;;5083504;28;20478;-72
2022/03/30 10:37:23;;;;;;;20.13;8.82;;;;;;;;;;5082253;28;20043;-72
2022/03/30 10:39:56;;;;;;;20.30;10.10;;;;;;;;;;5073320;28;20443;-72
2022/03/30 10:42:22;;;;;;;17.67;9.43;;;;;;;;;;5079954;28;20137;-72
2022/03/30 10:44:51;;;;;;;20.63;9.43;;;;;;;;;;5087692;28;20036;-72
2022/03/30 10:47:18;;;;;;;23.27;10.18;;;;;;;;;;5085874;28;20371;-72
2022/03/30 10:49:47;;;;;;;23.50;11.20;;;;;;;;;;5080480;28;20028;-71
2022/03/30 10:52:33;;;;;;;23.63;8.40;;;;;;;;;;5086208;28;20097;-73
2022/03/30 10:55:16;;;;;;;21.02;9.63;;;;;;;;;;5080777;28;20036;-72
2022/03/30 10:57:50;;;;;;;20.50;8.95;;;;;;;;;;5082893;28;20081;-72
2022/03/30 11:00:17;;;;;;;15.43;8.60;;;;;;;;;;5074480;28;20502;-72
2022/03/30 11:02:43;;;;;;;23.25;8.73;;;;;;;;;;5084514;28;20031;-72
2022/03/30 11:05:10;;;;;;;21.40;8.45;;;;;;;;;;5086625;28;20051;-72
2022/03/30 11:07:37;;;;;;;22.52;9.20;;;;;;;;;;5079260;28;20187;-72
2022/03/30 11:10:15;;;;;;;21.92;9.07;;;;;;;;;;5086534;28;20054;-72
2022/03/30 11:13:00;;;;;;;18.33;7.57;;;;;;;;;;5082886;28;20036;-72
2022/03/30 11:15:26;;;;;;;23.80;7.88;;;;;;;;;;5084582;28;20035;-72
2022/03/30 11:17:53;;;;;;;19.77;8.40;;;;;;;;;;5086556;28;20038;-72
2022/03/30 11:20:20;;;;;;;17.38;7.70;;;;;;;;;;5084412;28;20031;-73
2022/03/30 11:22:47;;;;;;;20.17;9.05;;;;;;;;;;5081414;28;20142;-72
2022/03/30 11:25:18;;;;;;;20.88;9.43;;;;;;;;;;5079119;28;20036;-72
2022/03/30 11:27:45;;;;;;;21.13;7.82;;;;;;;;;;5080925;28;20036;-72
2022/03/30 11:30:12;;;;;;;19.80;8.88;;;;;;;;;;5087670;28;20025;-73
2022/03/30 11:32:39;;;;;;;23.08;8.60;;;;;;;;;;5077713;28;20032;-72
2022/03/30 11:35:06;;;;;;;19.20;8.40;;;;;;;;;;5082252;28;20078;-72
2022/03/30 11:37:37;;;;;;;18.42;7.65;;;;;;;;;;5087791;28;20561;-71
2022/03/30 11:40:05;;;;;;;21.05;8.93;;;;;;;;;;5081706;28;20036;-72
2022/03/30 11:42:31;;;;;;;16.83;7.93;;;;;;;;;;5090152;28;20505;-72
2022/03/30 11:45:14;;;;;;;23.35;8.15;;;;;;;;;;5082662;28;20594;-72
2022/03/30 11:47:44;;;;;;;21.20;8.32;;;;;;;;;;5090954;28;20028;-72
2022/03/30 11:50:11;;;;;;;16.08;7.22;;;;;;;;;;5088323;28;20028;-72
2022/03/30 11:52:37;;;;;;;13.98;7.03;;;;;;;;;;5089280;28;20111;-72
2022/03/30 11:55:03;;;;;;;17.73;7.55;;;;;;;;;;5085084;28;20111;-72
2022/03/30 11:57:29;;;;;;;19.52;7.65;;;;;;;;;;5083510;28;20032;-72
2022/03/30 12:00:03;;;;;;;20.42;7.43;;;;;;;;;;5090031;28;20065;-72
2022/03/30 12:02:30;;;;;;;19.30;7.40;;;;;;;;;;5086895;28;20481;-72
2022/03/30 12:04:56;;;;;;;22.08;7.07;;;;;;;;;;5100742;28;20059;-72
2022/03/30 12:07:23;;;;;;;17.27;7.05;;;;;;;;;;5083641;28;20565;-72
2022/03/30 12:09:49;;;;;;;21.33;6.78;;;;;;;;;;5076839;28;20032;-72
2022/03/30 12:12:31;;;;;;;20.67;6.75;;;;;;;;;;5081681;28;20031;-72
2022/03/30 12:14:58;;;;;;;16.63;6.40;;;;;;;;;;5082335;28;20033;-72
2022/03/30 12:17:25;;;;;;;16.05;6.22;;;;;;;;;;5084969;28;20028;-72
2022/03/30 12:19:55;;;;;;;16.45;6.20;;;;;;;;;;5083852;28;20448;-72
2022/03/30 12:22:21;;;;;;;17.92;6.07;;;;;;;;;;5084535;28;20032;-72
2022/03/30 12:24:47;;;;;;;17.42;7.22;;;;;;;;;;5085235;28;20128;-72
2022/03/30 12:27:13;;;;;;;15.05;5.85;;;;;;;;;;5087073;28;20103;-72
2022/03/30 12:29:39;;;;;;;19.52;6.95;;;;;;;;;;5083255;28;20043;-72
2022/03/30 12:32:06;;;;;;;17.42;6.25;;;;;;;;;;5086696;28;20031;-72
2022/03/30 12:34:35;;;;;;;16.48;6.07;;;;;;;;;;5081744;28;20040;-72
2022/03/30 12:37:06;;;;;;;16.48;5.25;;;;;;;;;;5081582;28;20038;-72
2022/03/30 12:39:35;;;;;;;17.48;6.18;;;;;;;;;;5075847;28;20040;-72
2022/03/30 12:42:03;;;;;;;19.33;5.10;;;;;;;;;;5080740;28;20032;-72
2022/03/30 12:44:34;;;;;;;16.10;6.10;;;;;;;;;;5082752;28;20368;-72
2022/03/30 12:47:03;;;;;;;14.60;7.03;;;;;;;;;;5078563;28;20035;-72
2022/03/30 12:49:37;;;;;;;20.00;6.57;;;;;;;;;;5086646;28;20024;-72
2022/03/30 12:52:06;;;;;;;17.55;6.20;;;;;;;;;;5077858;28;20504;-72
2022/03/30 12:54:32;;;;;;;21.90;7.00;;;;;;;;;;5087072;28;20028;-72
2022/03/30 12:56:58;;;;;;;17.02;5.90;;;;;;;;;;5080605;28;20040;-72
2022/03/30 12:59:25;;;;;;;13.88;5.97;;;;;;;;;;5080864;28;20043;-72
2022/03/30 13:01:51;;;;;;;17.20;5.90;;;;;;;;;;5079903;28;20073;-72
2022/03/30 13:04:21;;;;;;;18.13;5.88;;;;;;;;;;5089920;28;20103;-72
2022/03/30 13:07:05;;;;;;;17.35;5.82;;;;;;;;;;5088008;28;20482;-72
2022/03/30 13:09:31;;;;;;;19.35;5.88;;;;;;;;;;5085529;28;20074;-72
2022/03/30 13:11:58;;;;;;;18.48;6.15;;;;;;;;;;5082867;28;20684;-72
2022/03/30 13:14:25;;;;;;;12.65;5.63;;;;;;;;;;5086987;28;20039;-72
2022/03/30 13:16:58;;;;;;;15.45;5.65;;;;;;;;;;5082732;28;20801;-72
2022/03/30 13:19:25;;;;;;;14.70;6.20;;;;;;;;;;5080400;28;20397;-72
2022/03/30 13:21:52;;;;;;;11.57;4.93;;;;;;;;;;5076659;28;20074;-72
2022/03/30 13:24:23;;;;;;;16.90;5.95;;;;;;;;;;5089369;28;20048;-72
2022/03/30 13:26:57;;;;;;;15.30;5.97;;;;;;;;;;5087882;28;20032;-72
2022/03/30 13:29:23;;;;;;;15.40;4.07;;;;;;;;;;5082792;28;20274;-72
2022/03/30 13:31:50;;;;;;;12.10;5.00;;;;;;;;;;5077482;28;20056;-73
2022/03/30 13:34:17;;;;;;;12.07;4.22;;;;;;;;;;5088465;28;20475;-73
2022/03/30 13:36:43;;;;;;;18.08;4.93;;;;;;;;;;5079449;28;20123;-73
2022/03/30 13:39:10;;;;;;;13.25;5.25;;;;;;;;;;5087927;28;20070;-73
2022/03/30 13:41:36;;;;;;;13.90;5.72;;;;;;;;;;5078240;28;20566;-73
2022/03/30 13:44:02;;;;;;;19.77;5.93;;;;;;;;;;5084761;28;20025;-73
2022/03/30 13:46:28;;;;;;;16.02;5.13;;;;;;;;;;5084682;28;20040;-73
2022/03/30 13:48:55;;;;;;;13.05;4.95;;;;;;;;;;5084234;28;20047;-73
2022/03/30 13:51:21;;;;;;;12.27;4.55;;;;;;;;;;5087855;28;20074;-72
2022/03/30 13:53:47;;;;;;;14.40;4.85;;;;;;;;;;5083080;28;20097;-73
2022/03/30 13:56:15;;;;;;;10.18;4.13;;;;;;;;;;5086310;28;20040;-72
2022/03/30 13:58:41;;;;;;;13.10;5.05;;;;;;;;;;5086390;28;20051;-73
2022/03/30 14:01:08;;;;;;;18.58;5.00;;;;;;;;;;5083742;28;20040;-73
2022/03/30 14:03:34;;;;;;;16.20;4.10;;;;;;;;;;5084636;28;20089;-73
2022/03/30 14:06:00;;;;;;;8.98;3.40;;;;;;;;;;5086108;28;20783;-73
2022/03/30 14:08:27;;;;;;;13.55;3.95;;;;;;;;;;5084812;28;20447;-73
2022/03/30 14:10:53;;;;;;;10.70;3.75;;;;;;;;;;5080815;28;20359;-74
2022/03/30 14:13:20;;;;;;;11.82;4.20;;;;;;;;;;5084367;28;20379;-73
2022/03/30 14:15:46;;;;;;;12.00;3.55;;;;;;;;;;5086603;28;20040;-73
2022/03/30 14:18:12;;;;;;;11.90;3.90;;;;;;;;;;5087407;28;20887;-73
2022/03/30 14:20:39;;;;;;;8.60;3.13;;;;;;;;;;5086181;28;20043;-73
2022/03/30 14:23:05;;;;;;;10.38;3.50;;;;;;;;;;5081107;28;20041;-72
2022/03/30 14:25:32;;;;;;;13.38;3.47;;;;;;;;;;5081441;28;20559;-73
2022/03/30 14:28:02;;;;;;;10.52;4.15;;;;;;;;;;5081320;28;20477;-73
2022/03/30 14:30:30;;;;;;;9.43;2.88;;;;;;;;;;5081693;28;20024;-73
2022/03/30 14:32:57;;;;;;;12.70;3.60;;;;;;;;;;5079712;28;20020;-74
2022/03/30 14:35:23;;;;;;;13.90;4.57;;;;;;;;;;5078914;28;20691;-74
2022/03/30 14:37:49;;;;;;;15.25;3.70;;;;;;;;;;5079526;28;20078;-73
2022/03/30 14:40:15;;;;;;;10.98;3.97;;;;;;;;;;5079827;28;20051;-74
2022/03/30 14:42:41;;;;;;;12.60;4.00;;;;;;;;;;5081111;28;20028;-73